createdAt,value
2023-01-31T00:00:30.579Z,-9994.16
2023-01-31T00:01:36.173Z,-10949.84
2023-01-31T00:02:38.891Z,-10311.69
2023-01-31T00:03:43.455Z,-10628.91
2023-01-31T00:04:46.072Z,-10628.47
2023-01-31T00:05:48.594Z,-10628.78
2023-01-31T00:06:52.313Z,-10947.03
2023-01-31T00:07:55.675Z,-10947.69
2023-01-31T00:08:59.751Z,-11587.03
2023-01-31T00:10:02.423Z,-11269.13
2023-01-31T00:11:05.035Z,-11269.56
2023-01-31T00:12:07.806Z,-11270.13
2023-01-31T00:13:10.438Z,-11589.66
2023-01-31T00:14:19.562Z,-12545.38
2023-01-31T00:15:22.352Z,-11908.16
2023-01-31T00:16:25.929Z,-12226.78
2023-01-31T00:17:28.928Z,-12544.88
2023-01-31T00:18:31.938Z,-12546.72
2023-01-31T00:19:34.924Z,-12864.69
2023-01-31T00:20:38.634Z,-13182.50
2023-01-31T00:21:44.050Z,-13183.28
2023-01-31T00:22:47.173Z,-13502.34
2023-01-31T00:23:51.137Z,-14139.16
2023-01-31T00:24:54.257Z,-14138.63
2023-01-31T00:26:10.592Z,-14776.88
2023-01-31T00:27:13.829Z,-13502.34
2023-01-31T00:28:16.943Z,-13184.53
2023-01-31T00:29:20.065Z,-12865.81
2023-01-31T00:30:23.191Z,-12866.69
2023-01-31T00:31:29.280Z,-13185.94
2023-01-31T00:32:32.551Z,-12870.69
2023-01-31T00:33:39.511Z,-14145.91
2023-01-31T00:34:42.638Z,-14143.91
2023-01-31T00:35:48.636Z,-14782.34
2023-01-31T00:36:51.759Z,-14784.19
2023-01-31T00:37:55.121Z,-15421.88
2023-01-31T00:38:59.926Z,-15422.44
2023-01-31T00:40:03.187Z,-15102.81
2023-01-31T00:41:06.886Z,-15104.38
2023-01-31T00:42:10.007Z,-15103.66
2023-01-31T00:43:13.249Z,-15422.16
2023-01-31T00:44:16.849Z,-15104.25
2023-01-31T00:45:20.342Z,-15742.09
2023-01-31T00:46:26.723Z,-16378.88
2023-01-31T00:47:29.950Z,-15741.81
2023-01-31T00:48:33.304Z,-16061.47
2023-01-31T00:49:36.960Z,-15742.53
2023-01-31T00:50:40.501Z,-15423.75
2023-01-31T00:51:45.181Z,-15423.91
2023-01-31T00:52:48.448Z,-14788.38
2023-01-31T00:53:52.264Z,-14470.22
2023-01-31T00:54:55.867Z,-13832.81
2023-01-31T00:56:08.228Z,-14789.38
2023-01-31T00:57:11.713Z,-13514.16
2023-01-31T00:58:14.598Z,-12877.53
2023-01-31T00:59:17.354Z,-12241.81
2023-01-31T01:00:20.722Z,-12241.81
2023-01-31T01:01:29.004Z,-12880.41
2023-01-31T01:02:32.005Z,-11604.84
2023-01-31T01:03:35.407Z,-11604.72
2023-01-31T01:04:38.125Z,-11285.41
2023-01-31T01:05:41.370Z,-11284.75
2023-01-31T01:06:44.059Z,-10965.31
2023-01-31T01:07:47.736Z,-10646.13
2023-01-31T01:08:50.369Z,-10008.72
2023-01-31T01:09:54.587Z,-9690.47
2023-01-31T01:10:57.867Z,-9690.66
2023-01-31T01:12:00.406Z,-8733.72
2023-01-31T01:13:05.915Z,-8732.28
2023-01-31T01:14:08.542Z,-7774.91
2023-01-31T01:15:11.305Z,-7774.41
2023-01-31T01:16:20.225Z,-8413.00
2023-01-31T01:17:22.701Z,-4903.03
2023-01-31T01:18:25.341Z,-2667.63
2023-01-31T01:19:27.869Z,-2986.97
2023-01-31T01:20:31.182Z,-2348.16
2023-01-31T01:21:39.189Z,-2987.19
2023-01-31T01:22:42.883Z,-1389.44
2023-01-31T01:23:47.392Z,-2028.28
2023-01-31T01:24:49.945Z,587.72
2023-01-31T01:25:52.487Z,1461.72
2023-01-31T01:26:57.399Z,2760.72
2023-01-31T01:28:00.032Z,5025.00
2023-01-31T01:29:04.091Z,8294.06
2023-01-31T01:30:07.960Z,10880.28
2023-01-31T01:31:12.715Z,11987.22
2023-01-31T01:32:17.115Z,13365.25
2023-01-31T01:33:19.714Z,13859.66
2023-01-31T01:34:22.232Z,11062.44
2023-01-31T01:35:24.756Z,13728.53
2023-01-31T01:36:28.356Z,13277.22
2023-01-31T01:37:31.299Z,14295.59
2023-01-31T01:38:38.089Z,11524.31
2023-01-31T01:39:41.077Z,12688.84
2023-01-31T01:40:46.484Z,12378.63
2023-01-31T01:41:51.280Z,12119.88
2023-01-31T01:42:53.932Z,12485.19
2023-01-31T01:43:59.812Z,10737.84
2023-01-31T01:45:05.586Z,10381.63
2023-01-31T01:46:11.249Z,11011.94
2023-01-31T01:47:43.082Z,9520.47
2023-01-31T01:48:48.771Z,11856.44
2023-01-31T01:49:57.885Z,11502.91
2023-01-31T01:51:04.009Z,12468.00
2023-01-31T01:52:10.488Z,11604.03
2023-01-31T01:53:18.299Z,10594.66
2023-01-31T01:54:28.562Z,10201.25
2023-01-31T01:55:40.378Z,10180.97
2023-01-31T01:56:46.140Z,11185.53
2023-01-31T01:57:52.498Z,10722.09
2023-01-31T01:59:07.134Z,10186.69
2023-01-31T02:00:36.655Z,9195.56
2023-01-31T02:01:40.855Z,9951.59
2023-01-31T02:02:47.456Z,9160.16
2023-01-31T02:03:53.224Z,8023.59
2023-01-31T02:04:55.749Z,10058.59
2023-01-31T02:06:04.388Z,7671.19
2023-01-31T02:07:09.192Z,6226.72
2023-01-31T02:08:16.026Z,3295.75
2023-01-31T02:09:47.111Z,4405.75
2023-01-31T02:10:58.629Z,5593.72
2023-01-31T02:12:01.271Z,6135.88
2023-01-31T02:13:04.877Z,-888.34
2023-01-31T02:14:10.645Z,-2091.50
2023-01-31T02:15:13.406Z,-630.84
2023-01-31T02:16:16.541Z,-2103.31
2023-01-31T02:17:20.006Z,-5540.00
2023-01-31T02:18:24.567Z,-6177.75
2023-01-31T02:19:46.176Z,-5539.50
2023-01-31T02:21:00.806Z,-4900.78
2023-01-31T02:22:17.487Z,-7133.66
2023-01-31T02:23:32.131Z,-4262.03
2023-01-31T02:24:44.611Z,-3304.31
2023-01-31T02:26:23.634Z,-6813.28
2023-01-31T02:27:55.907Z,-4899.72
2023-01-31T02:29:17.381Z,-1046.53
2023-01-31T02:30:48.021Z,-312.84
2023-01-31T02:32:00.259Z,-1288.03
2023-01-31T02:33:12.949Z,-1317.91
2023-01-31T02:34:20.990Z,-2569.84
2023-01-31T02:35:24.634Z,3979.19
2023-01-31T02:36:39.834Z,1262.44
2023-01-31T02:38:03.118Z,3165.00
2023-01-31T02:39:26.567Z,3429.72
2023-01-31T02:40:48.959Z,29.50
2023-01-31T02:42:05.282Z,703.50
2023-01-31T02:43:26.763Z,1704.31
2023-01-31T02:45:00.614Z,2211.13
2023-01-31T02:46:15.658Z,1711.84
2023-01-31T02:47:51.024Z,1901.56
2023-01-31T02:49:06.494Z,3339.72
2023-01-31T02:50:34.697Z,2061.38
2023-01-31T02:52:08.296Z,-978.19
2023-01-31T02:53:33.037Z,-3302.44
2023-01-31T02:54:56.805Z,274.38
2023-01-31T02:56:20.653Z,-2260.16
2023-01-31T02:57:24.153Z,-2663.63
2023-01-31T02:58:31.588Z,-6492.06
2023-01-31T02:59:36.732Z,-2344.19
2023-01-31T03:00:45.556Z,-4577.66
2023-01-31T03:02:02.397Z,-4578.09
2023-01-31T03:03:18.793Z,-5216.06
2023-01-31T03:04:22.554Z,-3939.56
2023-01-31T03:05:26.123Z,-5534.59
2023-01-31T03:06:29.135Z,-5534.06
2023-01-31T03:07:35.689Z,-7766.06
2023-01-31T03:08:43.129Z,-8084.81
2023-01-31T03:10:20.734Z,-9677.97
2023-01-31T03:11:31.422Z,-7447.03
2023-01-31T03:13:11.625Z,-8403.31
2023-01-31T03:14:31.252Z,-8721.22
2023-01-31T03:16:41.304Z,-8720.50
2023-01-31T03:18:11.460Z,-8401.19
2023-01-31T03:19:34.542Z,-9038.41
2023-01-31T03:20:44.466Z,-6488.38
2023-01-31T03:21:53.342Z,-8083.28
2023-01-31T03:23:04.151Z,-8720.31
2023-01-31T03:24:08.509Z,-8400.84
2023-01-31T03:25:13.669Z,-9355.84
2023-01-31T03:26:20.905Z,-8718.78
2023-01-31T03:27:24.831Z,-8399.69
2023-01-31T03:28:33.112Z,-9674.31
2023-01-31T03:29:38.775Z,-9036.91
2023-01-31T03:30:57.351Z,-9356.44
2023-01-31T03:32:07.163Z,-9674.50
2023-01-31T03:33:17.153Z,-9993.34
2023-01-31T03:34:20.292Z,-7444.84
2023-01-31T03:35:27.808Z,-8720.03
2023-01-31T03:36:50.879Z,-9358.53
2023-01-31T03:38:14.523Z,-9676.97
2023-01-31T03:39:46.779Z,-10313.75
2023-01-31T03:40:58.079Z,-11906.06
2023-01-31T03:42:13.570Z,-10313.84
2023-01-31T03:43:31.829Z,-12861.19
2023-01-31T03:44:56.668Z,-11587.72
2023-01-31T03:46:06.627Z,-12223.44
2023-01-31T03:47:17.978Z,-13179.44
2023-01-31T03:48:22.928Z,-13497.16
2023-01-31T03:49:27.844Z,-14133.75
2023-01-31T03:50:38.763Z,-14770.28
2023-01-31T03:51:52.571Z,-15089.53
2023-01-31T03:53:05.530Z,-15725.38
2023-01-31T03:54:19.077Z,-16043.09
2023-01-31T03:55:55.454Z,-15725.06
2023-01-31T03:57:08.776Z,-16997.31
2023-01-31T03:58:14.266Z,-15407.59
2023-01-31T03:59:22.946Z,-16361.38
2023-01-31T04:00:27.255Z,-16679.53
2023-01-31T04:01:36.028Z,-17317.47
2023-01-31T04:02:39.529Z,-17315.88
2023-01-31T04:04:04.575Z,-17953.31
2023-01-31T04:05:10.936Z,-18588.34
2023-01-31T04:06:17.177Z,-18269.16
2023-01-31T04:07:20.433Z,-18586.97
2023-01-31T04:08:22.944Z,-18586.28
2023-01-31T04:09:34.705Z,-18906.53
2023-01-31T04:10:37.354Z,-18908.25
2023-01-31T04:11:42.147Z,-19225.38
2023-01-31T04:12:45.630Z,-18906.16
2023-01-31T04:13:48.276Z,-18907.38
2023-01-31T04:14:51.060Z,-19225.38
2023-01-31T04:15:53.820Z,-19227.13
2023-01-31T04:16:56.458Z,-19544.94
2023-01-31T04:17:59.200Z,-19545.66
2023-01-31T04:19:01.848Z,-20188.03
2023-01-31T04:20:06.171Z,-20185.66
2023-01-31T04:21:10.668Z,-20186.03
2023-01-31T04:22:13.503Z,-20186.78
2023-01-31T04:23:16.254Z,-20185.66
2023-01-31T04:24:18.889Z,-20186.41
2023-01-31T04:25:22.238Z,-20188.25
2023-01-31T04:26:25.543Z,-20187.13
2023-01-31T04:27:28.614Z,-20186.78
2023-01-31T04:28:32.147Z,-20187.50
2023-01-31T04:29:35.221Z,-20190.09
2023-01-31T04:30:38.699Z,-20190.09
2023-01-31T04:31:41.911Z,-20189.53
2023-01-31T04:32:45.062Z,-20190.81
2023-01-31T04:33:48.188Z,-20192.69
2023-01-31T04:34:51.306Z,-20191.19
2023-01-31T04:35:54.671Z,-20191.75
2023-01-31T04:36:57.808Z,-20190.66
2023-01-31T04:38:00.907Z,-20191.19
2023-01-31T04:39:04.167Z,-20190.81
2023-01-31T04:40:08.639Z,-20193.03
2023-01-31T04:41:11.972Z,-20193.03
2023-01-31T04:42:15.085Z,-20193.03
2023-01-31T04:43:18.209Z,-20193.59
2023-01-31T04:44:21.444Z,-20191.19
2023-01-31T04:45:24.565Z,-20189.72
2023-01-31T04:46:27.886Z,-20190.09
2023-01-31T04:47:31.046Z,-20189.16
2023-01-31T04:48:34.289Z,-20191.00
2023-01-31T04:49:37.529Z,-20190.81
2023-01-31T04:50:40.650Z,-20190.47
2023-01-31T04:51:43.892Z,-20189.16
2023-01-31T04:52:51.337Z,-20190.81
2023-01-31T04:53:54.700Z,-20187.69
2023-01-31T04:54:57.938Z,-20186.19
2023-01-31T04:56:01.308Z,-20187.50
2023-01-31T04:57:04.805Z,-20187.69
2023-01-31T04:58:08.769Z,-19869.28
2023-01-31T04:59:12.227Z,-19867.63
2023-01-31T05:00:15.830Z,-20186.75
2023-01-31T05:01:19.239Z,-19868.91
2023-01-31T05:02:23.811Z,-19870.38
2023-01-31T05:03:26.998Z,-19553.19
2023-01-31T05:04:30.114Z,-19234.03
2023-01-31T05:05:36.349Z,-19234.75
2023-01-31T05:06:39.365Z,-19554.28
2023-01-31T05:07:43.205Z,-19236.31
2023-01-31T05:08:45.961Z,-18915.56
2023-01-31T05:09:48.964Z,-18915.91
2023-01-31T05:10:58.567Z,-19237.38
2023-01-31T05:12:01.325Z,-18919.06
2023-01-31T05:13:04.036Z,-18282.69
2023-01-31T05:14:07.018Z,-18602.25
2023-01-31T05:15:11.901Z,-18283.69
2023-01-31T05:16:14.745Z,-17647.19
2023-01-31T05:17:17.534Z,-17648.03
2023-01-31T05:18:20.224Z,-17648.50
2023-01-31T05:19:22.818Z,-17649.81
2023-01-31T05:20:25.385Z,-17330.69
2023-01-31T05:21:28.103Z,-17330.06
2023-01-31T05:22:31.311Z,-17649.81
2023-01-31T05:23:34.225Z,-17651.78
2023-01-31T05:24:37.266Z,-17333.13
2023-01-31T05:25:39.919Z,-17333.59
2023-01-31T05:26:42.532Z,-17014.91
2023-01-31T05:27:45.272Z,-17015.69
2023-01-31T05:28:48.190Z,-17015.69
2023-01-31T05:29:50.834Z,-17016.34
2023-01-31T05:30:54.199Z,-17016.19
2023-01-31T05:31:59.059Z,-17018.72
2023-01-31T05:33:01.845Z,-16698.53
2023-01-31T05:34:04.481Z,-16699.47
2023-01-31T05:35:07.405Z,-16700.56
2023-01-31T05:36:10.008Z,-16382.25
2023-01-31T05:37:12.930Z,-16382.38
2023-01-31T05:38:16.071Z,-16383.00
2023-01-31T05:39:18.799Z,-16383.47
2023-01-31T05:40:22.289Z,-16384.22
2023-01-31T05:41:24.919Z,-16703.38
2023-01-31T05:42:27.677Z,-16386.06
2023-01-31T05:43:30.323Z,-16385.00
2023-01-31T05:44:33.541Z,-16705.56
2023-01-31T05:45:36.117Z,-16704.94
2023-01-31T05:46:38.850Z,-16705.88
2023-01-31T05:47:41.363Z,-16706.81
2023-01-31T05:48:43.885Z,-16706.19
2023-01-31T05:49:46.406Z,-16706.81
2023-01-31T05:50:50.865Z,-17026.94
2023-01-31T05:51:53.368Z,-16709.91
2023-01-31T05:52:59.848Z,-16710.38
2023-01-31T05:54:02.878Z,-16709.91
2023-01-31T05:55:06.209Z,-16710.84
2023-01-31T05:56:08.737Z,-16391.75
2023-01-31T05:57:11.375Z,-16392.81
2023-01-31T05:58:14.013Z,-16710.69
2023-01-31T05:59:16.533Z,-16711.94
2023-01-31T06:00:19.549Z,-16712.41
2023-01-31T06:01:24.092Z,-16713.34
2023-01-31T06:02:26.794Z,-16711.16
2023-01-31T06:03:29.277Z,-16712.72
2023-01-31T06:04:32.138Z,-17030.59
2023-01-31T06:05:34.775Z,-17031.22
2023-01-31T06:06:37.901Z,-17351.31
2023-01-31T06:07:41.388Z,-17351.97
2023-01-31T06:08:43.925Z,-17352.59
2023-01-31T06:09:46.427Z,-17354.22
2023-01-31T06:10:48.947Z,-17353.09
2023-01-31T06:11:51.464Z,-17353.91
2023-01-31T06:12:53.992Z,-17355.19
2023-01-31T06:13:58.581Z,-17675.03
2023-01-31T06:15:01.203Z,-17675.34
2023-01-31T06:16:03.963Z,-17355.84
2023-01-31T06:17:06.474Z,-17355.84
2023-01-31T06:18:09.115Z,-17356.16
2023-01-31T06:19:11.641Z,-17676.19
2023-01-31T06:20:14.429Z,-18954.06
2023-01-31T06:21:17.039Z,-18956.84
2023-01-31T06:22:20.648Z,-18637.75
2023-01-31T06:23:23.525Z,-18638.78
2023-01-31T06:24:26.284Z,-18321.53
2023-01-31T06:25:28.929Z,-18642.56
2023-01-31T06:26:32.050Z,-18645.47
2023-01-31T06:27:35.071Z,-17688.13
2023-01-31T06:28:38.174Z,-17049.94
2023-01-31T06:29:40.932Z,-16411.97
2023-01-31T06:30:44.322Z,-16411.06
2023-01-31T06:31:47.445Z,-16411.69
2023-01-31T06:32:50.423Z,-16413.66
2023-01-31T06:33:53.300Z,-16095.22
2023-01-31T06:34:56.318Z,-16415.19
2023-01-31T06:36:03.265Z,-16416.56
2023-01-31T06:37:10.480Z,-16097.94
2023-01-31T06:38:13.607Z,-16094.94
2023-01-31T06:39:16.710Z,-16095.53
2023-01-31T06:40:19.832Z,-16413.50
2023-01-31T06:41:23.071Z,-16414.44
2023-01-31T06:42:26.314Z,-16094.63
2023-01-31T06:43:29.436Z,-16413.81
2023-01-31T06:44:33.755Z,-16733.16
2023-01-31T06:45:38.199Z,-16733.63
2023-01-31T06:46:41.445Z,-17053.09
2023-01-31T06:47:47.588Z,-16735.97
2023-01-31T06:48:50.683Z,-16416.28
2023-01-31T06:49:53.805Z,-16097.50
2023-01-31T06:50:57.888Z,-15777.50
2023-01-31T06:52:01.011Z,-15776.00
2023-01-31T06:53:04.268Z,-16096.75
2023-01-31T06:54:07.379Z,-16097.19
2023-01-31T06:55:11.935Z,-16096.44
2023-01-31T06:56:15.057Z,-16415.03
2023-01-31T06:57:18.061Z,-16414.13
2023-01-31T06:58:21.301Z,-16732.53
2023-01-31T06:59:24.429Z,-16732.38
2023-01-31T07:00:27.783Z,-17052.47
2023-01-31T07:01:31.479Z,-16734.25
2023-01-31T07:02:35.128Z,-16733.94
2023-01-31T07:03:38.472Z,-16733.31
2023-01-31T07:04:41.917Z,-16733.78
2023-01-31T07:05:46.635Z,-16734.72
2023-01-31T07:06:49.753Z,-16733.94
2023-01-31T07:07:53.714Z,-16413.81
2023-01-31T07:08:56.720Z,-16732.84
2023-01-31T07:09:59.720Z,-16733.63
2023-01-31T07:11:03.329Z,-16734.25
2023-01-31T07:12:06.212Z,-16733.63
2023-01-31T07:13:08.854Z,-16733.47
2023-01-31T07:14:11.365Z,-16732.69
2023-01-31T07:15:14.128Z,-17051.84
2023-01-31T07:16:17.516Z,-17052.00
2023-01-31T07:17:21.330Z,-17051.34
2023-01-31T07:18:24.214Z,-17052.47
2023-01-31T07:19:27.096Z,-17370.66
2023-01-31T07:20:30.507Z,-17371.78
2023-01-31T07:21:36.148Z,-17372.09
2023-01-31T07:22:39.219Z,-17691.41
2023-01-31T07:23:42.507Z,-17372.44
2023-01-31T07:24:45.348Z,-17372.25
2023-01-31T07:25:48.105Z,-17372.91
2023-01-31T07:26:55.294Z,-17692.72
2023-01-31T07:27:58.113Z,-17373.22
2023-01-31T07:29:00.870Z,-17373.06
2023-01-31T07:30:03.715Z,-17372.91
2023-01-31T07:31:11.097Z,-17373.88
2023-01-31T07:32:14.314Z,-17054.69
2023-01-31T07:33:17.291Z,-17055.00
2023-01-31T07:34:23.154Z,-17054.69
2023-01-31T07:35:25.844Z,-17374.50
2023-01-31T07:36:29.045Z,-17376.13
2023-01-31T07:37:32.209Z,-17057.53
2023-01-31T07:38:35.647Z,-17058.19
2023-01-31T07:39:38.407Z,-16738.59
2023-01-31T07:40:40.959Z,-16420.72
2023-01-31T07:41:43.451Z,-16420.09
2023-01-31T07:42:46.239Z,-16420.56
2023-01-31T07:43:49.111Z,-16101.84
2023-01-31T07:44:51.819Z,-16103.06
2023-01-31T07:45:54.532Z,-16104.25
2023-01-31T07:46:57.318Z,-15783.84
2023-01-31T07:48:00.057Z,-15784.00
2023-01-31T07:49:02.695Z,-15785.78
2023-01-31T07:50:05.684Z,-15786.97
2023-01-31T07:51:08.810Z,-15467.84
2023-01-31T07:52:11.326Z,-15147.53
2023-01-31T07:53:13.848Z,-15148.53
2023-01-31T07:54:16.491Z,-14829.19
2023-01-31T07:55:19.396Z,-14829.75
2023-01-31T07:56:22.855Z,-14829.19
2023-01-31T07:57:25.614Z,-14829.75
2023-01-31T07:58:28.132Z,-15148.94
2023-01-31T07:59:30.748Z,-15148.94
2023-01-31T08:00:52.174Z,-15466.97
2023-01-31T08:02:13.263Z,-15784.88
2023-01-31T08:03:34.053Z,-16742.34
2023-01-31T08:04:36.826Z,-17060.06
2023-01-31T08:05:39.441Z,-17378.38
2023-01-31T08:06:43.615Z,-18334.19
2023-01-31T08:08:06.055Z,-18973.72
2023-01-31T08:09:08.940Z,-19611.31
2023-01-31T08:10:12.059Z,-19612.38
2023-01-31T08:11:14.701Z,-19610.94
2023-01-31T08:12:17.345Z,-19928.41
2023-01-31T08:13:19.741Z,-20248.94
2023-01-31T08:14:25.570Z,-20248.22
2023-01-31T08:15:30.665Z,-20246.53
2023-01-31T08:16:33.314Z,-20248.56
2023-01-31T08:17:35.830Z,-20249.88
2023-01-31T08:18:39.070Z,-20250.44
2023-01-31T08:19:41.836Z,-20250.59
2023-01-31T08:20:44.996Z,-20249.50
2023-01-31T08:21:47.602Z,-20251.38
2023-01-31T08:22:50.240Z,-20252.09
2023-01-31T08:23:52.884Z,-20253.59
2023-01-31T08:24:55.403Z,-20252.84
2023-01-31T08:26:04.200Z,-20255.97
2023-01-31T08:27:06.806Z,-20253.59
2023-01-31T08:28:10.173Z,-20253.94
2023-01-31T08:29:12.954Z,-20251.72
2023-01-31T08:30:15.703Z,-20252.66
2023-01-31T08:31:21.918Z,-20251.19
2023-01-31T08:32:24.658Z,-20251.38
2023-01-31T08:33:27.605Z,-20252.84
2023-01-31T08:34:30.584Z,-20253.59
2023-01-31T08:35:33.336Z,-20253.94
2023-01-31T08:36:36.976Z,-20253.75
2023-01-31T08:37:41.383Z,-20253.59
2023-01-31T08:38:45.214Z,-20254.31
2023-01-31T08:39:49.067Z,-20255.78
2023-01-31T08:40:52.310Z,-20256.53
2023-01-31T08:41:55.429Z,-20256.16
2023-01-31T08:43:00.831Z,-20257.66
2023-01-31T08:44:05.272Z,-20259.31
2023-01-31T08:45:08.635Z,-20259.50
2023-01-31T08:46:12.382Z,-20258.75
2023-01-31T08:47:15.477Z,-20257.66
2023-01-31T08:48:18.632Z,-20257.47
2023-01-31T08:49:21.729Z,-20257.47
2023-01-31T08:50:28.195Z,-20260.97
2023-01-31T08:51:31.682Z,-20260.22
2023-01-31T08:52:35.886Z,-20261.34
2023-01-31T08:53:41.333Z,-20262.81
2023-01-31T08:54:44.530Z,-20262.06
2023-01-31T08:55:47.781Z,-20260.59
2023-01-31T08:56:51.014Z,-20262.81
2023-01-31T08:57:59.664Z,-20263.19
2023-01-31T08:59:03.376Z,-20263.19
2023-01-31T09:00:07.971Z,-20265.03
2023-01-31T09:01:14.372Z,-20265.03
2023-01-31T09:02:17.784Z,-20264.84
2023-01-31T09:03:21.382Z,-20267.25
2023-01-31T09:04:24.747Z,-20265.03
2023-01-31T09:05:30.098Z,-20265.94
2023-01-31T09:06:33.537Z,-20266.13
2023-01-31T09:07:36.750Z,-20265.56
2023-01-31T09:08:39.992Z,-20263.19
2023-01-31T09:09:43.354Z,-20263.38
2023-01-31T09:10:56.195Z,-20265.41
2023-01-31T09:11:59.318Z,-20263.72
2023-01-31T09:13:02.318Z,-20265.22
2023-01-31T09:14:05.081Z,-20261.69
2023-01-31T09:15:08.565Z,-20260.94
2023-01-31T09:16:12.765Z,-19942.78
2023-01-31T09:17:15.553Z,-19622.41
2023-01-31T09:18:18.292Z,-19623.13
2023-01-31T09:19:22.852Z,-19304.56
2023-01-31T09:20:25.618Z,-19304.56
2023-01-31T09:21:28.655Z,-19305.97
2023-01-31T09:22:31.512Z,-19307.03
2023-01-31T09:23:34.552Z,-18989.75
2023-01-31T09:24:37.378Z,-19308.63
2023-01-31T09:25:47.016Z,-19307.72
2023-01-31T09:26:50.228Z,-19308.81
2023-01-31T09:27:53.752Z,-19308.63
2023-01-31T09:28:58.067Z,-19309.50
2023-01-31T09:30:00.608Z,-19310.38
2023-01-31T09:31:05.730Z,-19630.13
2023-01-31T09:32:08.281Z,-19629.41
2023-01-31T09:33:10.918Z,-19629.06
2023-01-31T09:34:15.213Z,-19629.59
2023-01-31T09:35:19.672Z,-19631.03
2023-01-31T09:36:25.034Z,-19948.97
2023-01-31T09:37:30.962Z,-19949.88
2023-01-31T09:38:34.264Z,-19950.59
2023-01-31T09:39:36.838Z,-19950.06
2023-01-31T09:40:41.038Z,-19950.44
2023-01-31T09:42:01.554Z,-19950.59
2023-01-31T09:43:05.282Z,-19949.69
2023-01-31T09:44:15.577Z,-20270.91
2023-01-31T09:45:32.016Z,-20272.03
2023-01-31T09:46:42.868Z,-20271.66
2023-01-31T09:47:50.890Z,-20271.28
2023-01-31T09:48:55.897Z,-20270.38
2023-01-31T09:50:03.225Z,-20271.84
2023-01-31T09:51:06.390Z,-20272.75
2023-01-31T09:52:11.283Z,-20273.13
2023-01-31T09:53:21.905Z,-20272.38
2023-01-31T09:54:38.668Z,-20275.56
2023-01-31T09:56:09.630Z,-20276.47
2023-01-31T09:57:12.155Z,-20274.25
2023-01-31T09:58:20.652Z,-20278.31
2023-01-31T09:59:30.805Z,-20276.09
2023-01-31T10:00:48.109Z,-20276.09
2023-01-31T10:02:22.931Z,-20278.69
2023-01-31T10:03:43.712Z,-20280.16
2023-01-31T10:05:13.590Z,-20279.97
2023-01-31T10:06:24.614Z,-20279.06
2023-01-31T10:07:36.744Z,-20279.25
2023-01-31T10:08:51.532Z,-20280.91
2023-01-31T10:10:24.260Z,-20281.47
2023-01-31T10:11:39.023Z,-20279.44
2023-01-31T10:12:48.629Z,-20280.53
2023-01-31T10:13:58.827Z,-20279.06
2023-01-31T10:15:06.862Z,-20279.44
2023-01-31T10:16:25.227Z,-20280.91
2023-01-31T10:17:59.549Z,-20282.94
2023-01-31T10:19:25.474Z,-20282.94
2023-01-31T10:20:47.549Z,-20284.78
2023-01-31T10:21:55.717Z,-20281.81
2023-01-31T10:23:05.680Z,-20281.47
2023-01-31T10:24:23.924Z,-20281.63
2023-01-31T10:25:30.312Z,-20282.75
2023-01-31T10:26:37.301Z,-20282.75
2023-01-31T10:27:46.362Z,-20283.84
2023-01-31T10:28:55.963Z,-20284.22
2023-01-31T10:30:00.895Z,-20282.75
2023-01-31T10:31:31.441Z,-20286.44
2023-01-31T10:32:37.848Z,-20285.34
2023-01-31T10:34:07.035Z,-20287.56
2023-01-31T10:35:15.661Z,-20286.63
2023-01-31T10:36:46.975Z,-20287.56
2023-01-31T10:37:55.873Z,-20286.06
2023-01-31T10:39:07.260Z,-20286.63
2023-01-31T10:40:17.225Z,-20286.44
2023-01-31T10:41:32.019Z,-20288.28
2023-01-31T10:42:37.759Z,-20287.91
2023-01-31T10:43:50.827Z,-20288.66
2023-01-31T10:44:59.358Z,-20288.66
2023-01-31T10:46:03.020Z,-20289.75
2023-01-31T10:47:15.800Z,-20290.13
2023-01-31T10:48:27.315Z,-20291.41
2023-01-31T10:49:31.300Z,-20291.59
2023-01-31T10:51:06.803Z,-20292.72
2023-01-31T10:52:38.846Z,-20294.75
2023-01-31T10:53:58.647Z,-20295.84
2023-01-31T10:55:38.968Z,-20295.31
2023-01-31T10:56:48.002Z,-20294.75
2023-01-31T10:57:52.178Z,-20290.50
2023-01-31T10:58:57.092Z,-20293.09
2023-01-31T11:00:00.337Z,-20291.41
2023-01-31T11:01:12.354Z,-20292.72
2023-01-31T11:02:24.141Z,-20294.38
2023-01-31T11:03:27.343Z,-20291.59
2023-01-31T11:04:52.423Z,-20290.13
2023-01-31T11:05:58.663Z,-20293.09
2023-01-31T11:07:03.586Z,-20291.25
2023-01-31T11:08:45.960Z,-20289.75
2023-01-31T11:09:54.950Z,-20291.41
2023-01-31T11:11:04.674Z,-19971.19
2023-01-31T11:12:09.151Z,-19651.84
2023-01-31T11:13:19.559Z,-19332.31
2023-01-31T11:14:23.038Z,-19012.41
2023-01-31T11:15:29.048Z,-18694.53
2023-01-31T11:16:38.728Z,-18693.00
2023-01-31T11:17:44.523Z,-18376.78
2023-01-31T11:18:51.005Z,-18058.09
2023-01-31T11:19:56.295Z,-18053.59
2023-01-31T11:21:00.970Z,-17096.06
2023-01-31T11:22:04.941Z,-17095.09
2023-01-31T11:23:07.756Z,-17095.75
2023-01-31T11:24:20.895Z,-17415.28
2023-01-31T11:25:26.182Z,-17095.91
2023-01-31T11:26:32.236Z,-17097.00
2023-01-31T11:27:40.944Z,-17417.69
2023-01-31T11:28:52.949Z,-17097.81
2023-01-31T11:29:59.953Z,-16778.81
2023-01-31T11:31:06.237Z,-17100.97
2023-01-31T11:32:19.467Z,-17421.25
2023-01-31T11:33:45.395Z,-17420.59
2023-01-31T11:35:28.714Z,-17416.72
2023-01-31T11:36:42.804Z,-17097.81
2023-01-31T11:38:22.446Z,-17097.66
2023-01-31T11:39:33.936Z,-17097.81
2023-01-31T11:40:41.095Z,-16775.72
2023-01-31T11:41:43.652Z,-16135.16
2023-01-31T11:42:51.805Z,-16776.97
2023-01-31T11:44:12.443Z,-16457.06
2023-01-31T11:45:21.293Z,-16138.19
2023-01-31T11:46:24.062Z,-15495.47
2023-01-31T11:47:42.088Z,-16136.97
2023-01-31T11:48:45.775Z,-15495.31
2023-01-31T11:49:50.720Z,-15817.03
2023-01-31T11:50:58.766Z,-16135.59
2023-01-31T11:52:22.868Z,-16138.03
2023-01-31T11:53:33.568Z,-16457.97
2023-01-31T11:54:36.214Z,-14857.66
2023-01-31T11:55:39.932Z,-15496.06
2023-01-31T11:56:42.693Z,-15815.41
2023-01-31T11:57:45.569Z,-15176.66
2023-01-31T11:58:54.109Z,-15816.28
2023-01-31T11:59:59.150Z,-15817.16
2023-01-31T12:01:07.294Z,-15818.81
2023-01-31T12:02:40.435Z,-15819.25
2023-01-31T12:04:01.951Z,-15818.06
2023-01-31T12:05:16.300Z,-16139.22
2023-01-31T12:06:38.760Z,-16457.81
2023-01-31T12:07:50.416Z,-16457.06
2023-01-31T12:08:58.194Z,-16138.31
2023-01-31T12:10:00.841Z,-15178.94
2023-01-31T12:11:27.704Z,-16140.13
2023-01-31T12:12:35.507Z,-16138.94
2023-01-31T12:13:49.328Z,-16459.81
2023-01-31T12:14:55.073Z,-15818.34
2023-01-31T12:16:06.121Z,-16141.94
2023-01-31T12:17:15.117Z,-16140.88
2023-01-31T12:18:42.016Z,-16142.25
2023-01-31T12:19:57.502Z,-16142.84
2023-01-31T12:21:13.189Z,-16461.66
2023-01-31T12:22:22.672Z,-16144.34
2023-01-31T12:24:06.740Z,-16463.94
2023-01-31T12:25:19.131Z,-16145.25
2023-01-31T12:26:32.538Z,-16143.44
2023-01-31T12:28:12.732Z,-15824.72
2023-01-31T12:29:42.961Z,-15825.63
2023-01-31T12:30:56.009Z,-15826.50
2023-01-31T12:32:24.485Z,-16786.31
2023-01-31T12:33:54.623Z,-16465.94
2023-01-31T12:35:38.172Z,-16148.88
2023-01-31T12:36:59.174Z,-15508.25
2023-01-31T12:38:16.816Z,-16469.16
2023-01-31T12:39:25.337Z,-17109.53
2023-01-31T12:41:01.699Z,-17429.63
2023-01-31T12:42:42.152Z,-17750.03
2023-01-31T12:44:25.468Z,-17433.31
2023-01-31T12:45:54.176Z,-18073.06
2023-01-31T12:47:34.495Z,-18073.91
2023-01-31T12:48:40.115Z,-17433.81
2023-01-31T12:50:04.601Z,-18395.88
2023-01-31T12:51:45.051Z,-18712.56
2023-01-31T12:53:09.288Z,-19354.94
2023-01-31T12:54:27.290Z,-19353.50
2023-01-31T12:55:42.296Z,-19352.81
2023-01-31T12:57:09.792Z,-19674.44
2023-01-31T12:58:42.165Z,-19673.38
2023-01-31T13:00:12.672Z,-19672.66
2023-01-31T13:01:34.186Z,-19672.81
2023-01-31T13:02:37.525Z,-19674.06